Time,TemperatureF,DewpointF,PressureIn,WindDirection,WindDirectionDegrees,WindSpeedMPH,WindSpeedGustMPH,Humidity,HourlyPrecipIn,Conditions,Clouds,dailyrainin,SoftwareType,DateUTC
2013-03-03 00:06:00,23.6,20.0,29.89,SW,219,5.0,-999.0,84,-99.99,,,0.00,weatherlink.com 1.10,2013-03-03 05:06:00,
2013-03-03 00:21:00,23.6,20.0,29.88,SW,224,0.0,-999.0,85,-99.99,,,0.00,weatherlink.com 1.10,2013-03-03 05:21:00,
2013-03-03 00:36:00,23.6,20.0,29.88,SW,226,0.0,-999.0,85,-99.99,,,0.00,weatherlink.com 1.10,2013-03-03 05:36:00,
2013-03-03 00:51:00,23.6,20.0,29.88,WSW,237,2.0,-999.0,86,-99.99,,,0.00,weatherlink.com 1.10,2013-03-03 05:51:00,
2013-03-03 01:06:00,23.8,20.0,29.89,WSW,241,3.0,-999.0,86,-99.99,,,0.00,weatherlink.com 1.10,2013-03-03 06:06:00,
2013-03-03 01:21:00,23.8,20.0,29.88,WSW,246,3.0,-999.0,86,-99.99,,,0.00,weatherlink.com 1.10,2013-03-03 06:21:00,
2013-03-03 01:36:00,23.8,20.0,29.89,WSW,247,0.0,-999.0,86,-99.99,,,0.00,weatherlink.com 1.10,2013-03-03 06:36:00,
2013-03-03 01:51:00,23.8,20.0,29.88,WNW,285,1.0,-999.0,86,-99.99,,,0.00,weatherlink.com 1.10,2013-03-03 06:51:00,
2013-03-03 02:06:00,23.8,21.0,29.88,West,272,0.0,-999.0,87,-99.99,,,0.00,weatherlink.com 1.10,2013-03-03 07:06:00,
2013-03-03 02:21:00,23.6,20.0,29.88,West,272,0.0,-999.0,87,-99.99,,,0.00,weatherlink.com 1.10,2013-03-03 07:21:00,
2013-03-03 02:36:00,23.8,21.0,29.88,West,281,1.0,-999.0,87,-99.99,,,0.00,weatherlink.com 1.10,2013-03-03 07:36:00,
2013-03-03 02:51:00,23.8,21.0,29.87,WNW,284,2.0,-999.0,87,-99.99,,,0.00,weatherlink.com 1.10,2013-03-03 07:51:00,
2013-03-03 03:06:00,23.8,21.0,29.87,NW,308,2.0,-999.0,87,-99.99,,,0.00,weatherlink.com 1.10,2013-03-03 08:06:00,
2013-03-03 03:21:00,23.8,21.0,29.87,NW,306,2.0,-999.0,87,-99.99,,,0.00,weatherlink.com 1.10,2013-03-03 08:21:00,
2013-03-03 03:36:00,23.8,21.0,29.87,NW,312,0.0,-999.0,87,-99.99,,,0.00,weatherlink.com 1.10,2013-03-03 08:36:00,
2013-03-03 03:51:00,23.8,21.0,29.87,NW,312,2.0,-999.0,87,-99.99,,,0.00,weatherlink.com 1.10,2013-03-03 08:51:00,
2013-03-03 04:06:00,23.8,21.0,29.87,NW,315,8.0,-999.0,88,-99.99,,,0.00,weatherlink.com 1.10,2013-03-03 09:06:00,
2013-03-03 04:21:00,23.6,21.0,29.87,NW,304,1.0,-999.0,88,-99.99,,,0.00,weatherlink.com 1.10,2013-03-03 09:21:00,
2013-03-03 04:37:00,23.6,21.0,29.88,NW,309,0.0,-999.0,88,-99.99,,,0.00,weatherlink.com 1.10,2013-03-03 09:37:00,
2013-03-03 04:52:00,23.6,21.0,29.88,NW,326,2.0,-999.0,88,-99.99,,,0.00,weatherlink.com 1.10,2013-03-03 09:52:00,
2013-03-03 05:07:00,23.6,21.0,29.88,NW,313,5.0,-999.0,88,-99.99,,,0.00,weatherlink.com 1.10,2013-03-03 10:07:00,
2013-03-03 05:22:00,23.6,21.0,29.88,NW,305,1.0,-999.0,88,-99.99,,,0.00,weatherlink.com 1.10,2013-03-03 10:22:00,
2013-03-03 05:37:00,23.5,21.0,29.88,NW,306,1.0,-999.0,88,-99.99,,,0.00,weatherlink.com 1.10,2013-03-03 10:37:00,
2013-03-03 05:52:00,23.3,20.0,29.88,WNW,298,1.0,-999.0,88,-99.99,,,0.00,weatherlink.com 1.10,2013-03-03 10:52:00,
2013-03-03 06:07:00,23.2,20.0,29.89,NW,319,3.0,-999.0,88,-99.99,,,0.00,weatherlink.com 1.10,2013-03-03 11:07:00,
2013-03-03 06:22:00,22.9,20.0,29.89,NW,316,6.0,-999.0,88,-99.99,,,0.00,weatherlink.com 1.10,2013-03-03 11:22:00,
2013-03-03 06:37:00,22.4,19.0,29.89,NNW,346,3.0,-999.0,87,-99.99,,,0.00,weatherlink.com 1.10,2013-03-03 11:37:00,
2013-03-03 06:52:00,22.1,19.0,29.90,NW,308,5.0,-999.0,86,-99.99,,,0.00,weatherlink.com 1.10,2013-03-03 11:52:00,
2013-03-03 07:07:00,21.9,18.0,29.90,NW,312,1.0,-999.0,85,-99.99,,,0.00,weatherlink.com 1.10,2013-03-03 12:07:00,
2013-03-03 07:22:00,21.9,18.0,29.90,NNW,332,1.0,-999.0,84,-99.99,,,0.00,weatherlink.com 1.10,2013-03-03 12:22:00,
2013-03-03 07:37:00,21.8,17.0,29.91,WNW,301,1.0,-999.0,82,-99.99,,,0.00,weatherlink.com 1.10,2013-03-03 12:37:00,
2013-03-03 07:52:00,21.9,17.0,29.91,WNW,298,2.0,-999.0,82,-99.99,,,0.00,weatherlink.com 1.10,2013-03-03 12:52:00,
2013-03-03 08:07:00,22.1,17.0,29.92,North,352,5.0,-999.0,80,-99.99,,,0.00,weatherlink.com 1.10,2013-03-03 13:07:00,
2013-03-03 08:22:00,22.4,17.0,29.92,NNW,330,3.0,-999.0,80,-99.99,,,0.00,weatherlink.com 1.10,2013-03-03 13:22:00,
2013-03-03 08:37:00,22.4,17.0,29.92,NNW,343,2.0,-999.0,79,-99.99,,,0.00,weatherlink.com 1.10,2013-03-03 13:37:00,
2013-03-03 08:52:00,22.4,17.0,29.92,WNW,294,3.0,-999.0,78,-99.99,,,0.00,weatherlink.com 1.10,2013-03-03 13:52:00,
2013-03-03 09:07:00,22.4,16.0,29.91,NNW,346,4.0,-999.0,76,-99.99,,,0.00,weatherlink.com 1.10,2013-03-03 14:07:00,
2013-03-03 09:22:00,22.9,17.0,29.92,WNW,302,5.0,-999.0,77,-99.99,,,0.00,weatherlink.com 1.10,2013-03-03 14:22:00,
2013-03-03 09:37:00,22.5,17.0,29.92,NW,308,3.0,-999.0,79,-99.99,,,0.00,weatherlink.com 1.10,2013-03-03 14:37:00,
2013-03-03 09:52:00,22.1,17.0,29.92,WNW,301,3.0,-999.0,80,-99.99,,,0.00,weatherlink.com 1.10,2013-03-03 14:52:00,
2013-03-03 10:07:00,21.9,17.0,29.92,WNW,298,6.0,-999.0,81,-99.99,,,0.00,weatherlink.com 1.10,2013-03-03 15:07:00,
2013-03-03 10:22:00,21.8,17.0,29.92,North,352,5.0,-999.0,80,-99.99,,,0.00,weatherlink.com 1.10,2013-03-03 15:22:00,
2013-03-03 10:37:00,21.9,16.0,29.92,NW,326,2.0,-999.0,79,-99.99,,,0.00,weatherlink.com 1.10,2013-03-03 15:37:00,
2013-03-03 10:52:00,22.7,17.0,29.92,WNW,296,0.0,-999.0,78,-99.99,,,0.00,weatherlink.com 1.10,2013-03-03 15:52:00,
2013-03-03 11:07:00,23.0,16.0,29.92,NW,313,3.0,-999.0,75,-99.99,,,0.00,weatherlink.com 1.10,2013-03-03 16:07:00,
2013-03-03 11:22:00,22.9,16.0,29.92,North,0,7.0,-999.0,74,-99.99,,,0.00,weatherlink.com 1.10,2013-03-03 16:22:00,
2013-03-03 11:37:00,22.7,16.0,29.92,North,0,11.0,-999.0,74,-99.99,,,0.00,weatherlink.com 1.10,2013-03-03 16:37:00,
2013-03-03 11:52:00,23.0,16.0,29.92,NW,313,3.0,-999.0,75,-99.99,,,0.00,weatherlink.com 1.10,2013-03-03 16:52:00,
2013-03-03 12:07:00,23.3,17.0,29.91,NW,323,0.0,-999.0,76,-99.99,,,0.00,weatherlink.com 1.10,2013-03-03 17:07:00,
2013-03-03 12:22:00,23.9,17.0,29.90,NW,308,0.0,-999.0,75,-99.99,,,0.00,weatherlink.com 1.10,2013-03-03 17:22:00,
2013-03-03 12:37:00,25.0,17.0,29.90,NW,313,3.0,-999.0,70,-99.99,,,0.00,weatherlink.com 1.10,2013-03-03 17:37:00,
2013-03-03 12:52:00,25.8,16.0,29.89,NW,318,4.0,-999.0,66,-99.99,,,0.00,weatherlink.com 1.10,2013-03-03 17:52:00,
2013-03-03 13:07:00,25.6,16.0,29.88,NW,306,2.0,-999.0,66,-99.99,,,0.01,weatherlink.com 1.10,2013-03-03 18:07:00,
2013-03-03 13:22:00,25.8,15.0,29.88,NW,313,3.0,-999.0,63,-99.99,,,0.01,weatherlink.com 1.10,2013-03-03 18:22:00,
2013-03-03 13:37:00,26.0,14.0,29.88,NW,306,6.0,-999.0,62,-99.99,,,0.01,weatherlink.com 1.10,2013-03-03 18:37:00,
2013-03-03 13:52:00,26.6,15.0,29.87,NW,312,6.0,-999.0,61,-99.99,,,0.01,weatherlink.com 1.10,2013-03-03 18:52:00,
2013-03-03 14:07:00,26.4,14.0,29.87,WNW,302,8.0,-999.0,59,-99.99,,,0.01,weatherlink.com 1.10,2013-03-03 19:07:00,
2013-03-03 14:22:00,26.4,14.0,29.87,NNW,328,3.0,-999.0,60,-99.99,,,0.01,weatherlink.com 1.10,2013-03-03 19:22:00,
2013-03-03 14:37:00,26.7,15.0,29.87,WNW,289,3.0,-999.0,61,-99.99,,,0.01,weatherlink.com 1.10,2013-03-03 19:37:00,
2013-03-03 14:52:00,26.9,15.0,29.87,NW,312,1.0,-999.0,62,-99.99,,,0.01,weatherlink.com 1.10,2013-03-03 19:52:00,
2013-03-03 15:07:00,27.0,15.0,29.87,NNW,347,2.0,-999.0,62,-99.99,,,0.01,weatherlink.com 1.10,2013-03-03 20:07:00,
2013-03-03 15:22:00,27.0,15.0,29.87,North,354,15.0,-999.0,60,-99.99,,,0.01,weatherlink.com 1.10,2013-03-03 20:22:00,
2013-03-03 15:37:00,26.7,15.0,29.87,NW,305,6.0,-999.0,62,-99.99,,,0.01,weatherlink.com 1.10,2013-03-03 20:37:00,
2013-03-03 15:52:00,26.6,16.0,29.88,NW,316,4.0,-999.0,64,-99.99,,,0.01,weatherlink.com 1.10,2013-03-03 20:52:00,
2013-03-03 16:07:00,26.6,16.0,29.88,NW,313,3.0,-999.0,65,-99.99,,,0.01,weatherlink.com 1.10,2013-03-03 21:07:00,
2013-03-03 16:23:00,25.7,16.0,29.88,NW,319,7.0,-999.0,68,-99.99,,,0.01,weatherlink.com 1.10,2013-03-03 21:23:00,
2013-03-03 16:37:00,25.7,17.0,29.88,West,272,3.0,-999.0,69,-99.99,,,0.01,weatherlink.com 1.10,2013-03-03 21:37:00,
2013-03-03 16:52:00,26.0,16.0,29.88,NW,304,4.0,-999.0,67,-99.99,,,0.01,weatherlink.com 1.10,2013-03-03 21:52:00,
2013-03-03 17:07:00,26.0,17.0,29.89,NW,315,5.0,-999.0,68,-99.99,,,0.01,weatherlink.com 1.10,2013-03-03 22:07:00,
2013-03-03 17:22:00,26.1,17.0,29.89,NW,304,2.0,-999.0,68,-99.99,,,0.01,weatherlink.com 1.10,2013-03-03 22:22:00,
2013-03-03 17:37:00,25.6,17.0,29.90,NW,315,2.0,-999.0,69,-99.99,,,0.01,weatherlink.com 1.10,2013-03-03 22:37:00,
2013-03-03 17:52:00,25.4,15.0,29.90,NNW,337,7.0,-999.0,64,-99.99,,,0.01,weatherlink.com 1.10,2013-03-03 22:52:00,
2013-03-03 18:07:00,25.3,15.0,29.91,WNW,284,3.0,-999.0,64,-99.99,,,0.01,weatherlink.com 1.10,2013-03-03 23:07:00,
2013-03-03 18:23:00,25.1,15.0,29.91,NW,308,5.0,-999.0,65,-99.99,,,0.01,weatherlink.com 1.10,2013-03-03 23:23:00,
2013-03-03 18:38:00,24.4,17.0,29.92,NW,319,7.0,-999.0,73,-99.99,,,0.01,weatherlink.com 1.10,2013-03-03 23:38:00,
2013-03-03 18:53:00,24.4,17.0,29.93,NW,313,5.0,-999.0,74,-99.99,,,0.01,weatherlink.com 1.10,2013-03-03 23:53:00,
2013-03-03 19:08:00,24.4,17.0,29.93,WNW,299,1.0,-999.0,72,-99.99,,,0.01,weatherlink.com 1.10,2013-03-04 00:08:00,
2013-03-03 19:23:00,24.2,16.0,29.94,NW,316,5.0,-999.0,70,-99.99,,,0.01,weatherlink.com 1.10,2013-03-04 00:23:00,
2013-03-03 19:38:00,24.1,15.0,29.94,WNW,296,3.0,-999.0,69,-99.99,,,0.01,weatherlink.com 1.10,2013-03-04 00:38:00,
2013-03-03 19:53:00,23.9,16.0,29.94,WNW,302,6.0,-999.0,71,-99.99,,,0.01,weatherlink.com 1.10,2013-03-04 00:53:00,
2013-03-03 20:08:00,23.6,16.0,29.95,NW,312,3.0,-999.0,72,-99.99,,,0.01,weatherlink.com 1.10,2013-03-04 01:08:00,
2013-03-03 20:23:00,23.2,16.0,29.95,WNW,294,3.0,-999.0,75,-99.99,,,0.01,weatherlink.com 1.10,2013-03-04 01:23:00,
2013-03-03 20:38:00,23.0,17.0,29.96,NW,319,1.0,-999.0,77,-99.99,,,0.01,weatherlink.com 1.10,2013-03-04 01:38:00,
2013-03-03 20:53:00,23.0,17.0,29.96,NW,306,2.0,-999.0,78,-99.99,,,0.01,weatherlink.com 1.10,2013-03-04 01:53:00,
2013-03-03 21:08:00,23.0,17.0,29.96,NW,313,3.0,-999.0,77,-99.99,,,0.01,weatherlink.com 1.10,2013-03-04 02:08:00,
2013-03-03 21:23:00,22.9,17.0,29.96,WNW,294,2.0,-999.0,77,-99.99,,,0.01,weatherlink.com 1.10,2013-03-04 02:23:00,
2013-03-03 21:38:00,22.9,16.0,29.97,WSW,258,6.0,-999.0,76,-99.99,,,0.01,weatherlink.com 1.10,2013-03-04 02:38:00,
2013-03-03 21:53:00,23.0,16.0,29.96,WNW,301,2.0,-999.0,73,-99.99,,,0.01,weatherlink.com 1.10,2013-03-04 02:53:00,
2013-03-03 22:08:00,23.0,15.0,29.96,WNW,302,6.0,-999.0,71,-99.99,,,0.01,weatherlink.com 1.10,2013-03-04 03:08:00,
2013-03-03 22:23:00,23.0,15.0,29.96,WNW,287,5.0,-999.0,72,-99.99,,,0.01,weatherlink.com 1.10,2013-03-04 03:23:00,
2013-03-03 22:38:00,22.9,15.0,29.96,WSW,258,6.0,-999.0,73,-99.99,,,0.01,weatherlink.com 1.10,2013-03-04 03:38:00,
2013-03-03 22:53:00,22.9,15.0,29.96,WNW,284,5.0,-999.0,72,-99.99,,,0.01,weatherlink.com 1.10,2013-03-04 03:53:00,
2013-03-03 23:08:00,22.7,15.0,29.96,West,278,6.0,-999.0,72,-99.99,,,0.01,weatherlink.com 1.10,2013-03-04 04:08:00,
2013-03-03 23:23:00,22.5,15.0,29.96,WNW,302,5.0,-999.0,72,-99.99,,,0.01,weatherlink.com 1.10,2013-03-04 04:23:00,
2013-03-03 23:38:00,22.4,15.0,29.97,WNW,295,0.0,-999.0,73,-99.99,,,0.01,weatherlink.com 1.10,2013-03-04 04:38:00,
2013-03-03 23:53:00,22.4,15.0,29.97,NW,309,2.0,-999.0,73,-99.99,,,0.01,weatherlink.com 1.10,2013-03-04 04:53:00,